Cape Cod Natl Seashore, Massachusetts
Current Conditions -  °F | °C
As of 9:55 PM on Sunday 21 Dec 2014 (Local Time) from KPVC Reporting Station
Overcast Overcast  
Wind Chill: 40°   Ceiling: 3300
Heat Index: 43°   Visibility: 10mi
Dew Point: 34°   Wind: 5mph
Humidity: 70%   Direction: 50°NE
Pressure: 30.34"   Gusts: NA
Location:  41.97°N, 70.01°W
Report Text: KPVC 220255Z 05004KT 10SM OVC033 06/01 A3034 RMK AO1 P0001 60002 52010
Loading
Personal Weather Stations






























Interactive Weather Map New forecast layout! Learn more

10-Day Weather Forecast

Advertisements
Track Severe Weather on mobile